Mc Intosh, Florida
Current Conditions -  °F | °C
As of 3:53 PM on Wednesday 17 Dec 2014 (Local Time) from KGNV Reporting Station
Clear Clear  
Wind Chill: 68°   Ceiling: Unl
Heat Index: 68°   Visibility: 10mi
Dew Point: 42°   Wind: 9mph
Humidity: 39%   Direction: 280°W
Pressure: 30.11"   Gusts: NA
Location:  29.4411°N, 82.2461°W
Report Text: KGNV 172053Z 28008KT 10SM CLR 20/06 A3011 RMK AO2 SLP196 T02000056 56012
Loading
Personal Weather Stations






























Interactive Weather Map New forecast layout! Learn more

10-Day Weather Forecast

Advertisements
Track Severe Weather on mobile